sensor_id;sensor_type;location;lat;lon;timestamp;pressure;altitude;pressure_sealevel;temperature;humidity
13011;BME280;6786;57.632;11.962;2023-12-20T00:00:13;99284.63;;;18.72;43.78
13011;BME280;6786;57.632;11.962;2023-12-20T00:02:42;99272.25;;;18.71;43.55
13011;BME280;6786;57.632;11.962;2023-12-20T00:05:13;99279.63;;;18.69;43.72
13011;BME280;6786;57.632;11.962;2023-12-20T00:07:42;99269.59;;;18.71;43.74
13011;BME280;6786;57.632;11.962;2023-12-20T00:10:12;99277.63;;;18.71;43.72
13011;BME280;6786;57.632;11.962;2023-12-20T00:12:41;99285.47;;;18.72;43.75
13011;BME280;6786;57.632;11.962;2023-12-20T00:15:09;99291.69;;;18.73;43.67
13011;BME280;6786;57.632;11.962;2023-12-20T00:17:38;99285.31;;;18.74;43.71
13011;BME280;6786;57.632;11.962;2023-12-20T00:20:07;99288.00;;;18.74;43.73
13011;BME280;6786;57.632;11.962;2023-12-20T00:22:35;99282.63;;;18.74;43.66
13011;BME280;6786;57.632;11.962;2023-12-20T00:25:04;99280.13;;;18.72;43.71
13011;BME280;6786;57.632;11.962;2023-12-20T00:27:34;99278.28;;;18.73;43.65
13011;BME280;6786;57.632;11.962;2023-12-20T00:30:03;99271.09;;;18.73;43.63
13011;BME280;6786;57.632;11.962;2023-12-20T00:32:32;99276.44;;;18.73;43.52
13011;BME280;6786;57.632;11.962;2023-12-20T00:35:00;99255.03;;;18.73;43.68
13011;BME280;6786;57.632;11.962;2023-12-20T00:37:28;99245.16;;;18.74;43.64
13011;BME280;6786;57.632;11.962;2023-12-20T00:39:57;99255.88;;;18.74;43.52
13011;BME280;6786;57.632;11.962;2023-12-20T00:42:25;99244.16;;;18.75;43.58
13011;BME280;6786;57.632;11.962;2023-12-20T00:44:55;99243.16;;;18.76;43.49
13011;BME280;6786;57.632;11.962;2023-12-20T00:47:23;99234.13;;;18.77;43.51
13011;BME280;6786;57.632;11.962;2023-12-20T00:49:52;99225.41;;;18.75;43.47
13011;BME280;6786;57.632;11.962;2023-12-20T00:52:20;99232.47;;;18.76;43.57
13011;BME280;6786;57.632;11.962;2023-12-20T00:54:49;99225.41;;;18.75;43.49
13011;BME280;6786;57.632;11.962;2023-12-20T00:57:18;99148.53;;;18.29;43.57
13011;BME280;6786;57.632;11.962;2023-12-20T00:59:46;99229.78;;;18.76;43.57
13011;BME280;6786;57.632;11.962;2023-12-20T01:02:16;99227.13;;;18.76;43.45
13011;BME280;6786;57.632;11.962;2023-12-20T01:04:44;99221.75;;;18.76;43.44
13011;BME280;6786;57.632;11.962;2023-12-20T01:07:12;99158.25;;;18.38;43.49
13011;BME280;6786;57.632;11.962;2023-12-20T01:09:40;99216.41;;;18.76;43.45
13011;BME280;6786;57.632;11.962;2023-12-20T01:12:09;99200.34;;;18.76;43.49
13011;BME280;6786;57.632;11.962;2023-12-20T01:14:37;99203.03;;;18.76;43.52
13011;BME280;6786;57.632;11.962;2023-12-20T01:17:06;99184.28;;;18.76;43.50
13011;BME280;6786;57.632;11.962;2023-12-20T01:19:36;99195.16;;;18.74;43.42
13011;BME280;6786;57.632;11.962;2023-12-20T01:22:04;99113.75;;;18.29;43.55
13011;BME280;6786;57.632;11.962;2023-12-20T01:24:33;99179.94;;;18.75;43.42
13011;BME280;6786;57.632;11.962;2023-12-20T01:27:01;99179.94;;;18.75;43.46
13011;BME280;6786;57.632;11.962;2023-12-20T01:29:29;99171.91;;;18.75;43.52
13011;BME280;6786;57.632;11.962;2023-12-20T01:31:58;99101.75;;;18.25;43.60
13011;BME280;6786;57.632;11.962;2023-12-20T01:34:26;99166.53;;;18.75;43.31
13011;BME280;6786;57.632;11.962;2023-12-20T01:36:56;99161.19;;;18.75;43.48
13011;BME280;6786;57.632;11.962;2023-12-20T01:39:24;99139.78;;;18.75;43.52
13011;BME280;6786;57.632;11.962;2023-12-20T01:41:55;99150.50;;;18.75;43.50
13011;BME280;6786;57.632;11.962;2023-12-20T01:44:24;99131.75;;;18.75;43.48
13011;BME280;6786;57.632;11.962;2023-12-20T01:46:52;99132.78;;;18.74;43.43
13011;BME280;6786;57.632;11.962;2023-12-20T01:49:21;99122.06;;;18.74;43.45
13011;BME280;6786;57.632;11.962;2023-12-20T01:51:50;99009.53;;;18.13;43.49
13011;BME280;6786;57.632;11.962;2023-12-20T01:54:20;99105.00;;;18.75;43.48
13011;BME280;6786;57.632;11.962;2023-12-20T01:56:50;99095.66;;;18.71;43.42
13011;BME280;6786;57.632;11.962;2023-12-20T01:59:20;99096.97;;;18.75;43.49
13011;BME280;6786;57.632;11.962;2023-12-20T02:01:49;99019.19;;;18.22;43.46
13011;BME280;6786;57.632;11.962;2023-12-20T02:04:18;99095.31;;;18.74;43.48
13011;BME280;6786;57.632;11.962;2023-12-20T02:06:47;99100.66;;;18.74;43.47
13011;BME280;6786;57.632;11.962;2023-12-20T02:09:16;99091.59;;;18.75;43.45
13011;BME280;6786;57.632;11.962;2023-12-20T02:11:46;99089.59;;;18.77;43.35
13011;BME280;6786;57.632;11.962;2023-12-20T02:14:14;99087.94;;;18.76;43.32
13011;BME280;6786;57.632;11.962;2023-12-20T02:16:43;99083.75;;;18.73;43.54
13011;BME280;6786;57.632;11.962;2023-12-20T02:19:13;99072.06;;;18.74;43.54
13011;BME280;6786;57.632;11.962;2023-12-20T02:21:44;98980.09;;;18.21;43.40
13011;BME280;6786;57.632;11.962;2023-12-20T02:24:12;99071.91;;;18.76;43.42
13011;BME280;6786;57.632;11.962;2023-12-20T02:26:40;98980.56;;;18.24;43.32
13011;BME280;6786;57.632;11.962;2023-12-20T02:29:12;99066.53;;;18.76;43.30
13011;BME280;6786;57.632;11.962;2023-12-20T02:31:41;99062.00;;;18.76;43.38
13011;BME280;6786;57.632;11.962;2023-12-20T02:34:09;99050.47;;;18.76;43.37
13011;BME280;6786;57.632;11.962;2023-12-20T02:36:38;99039.78;;;18.76;43.36
13011;BME280;6786;57.632;11.962;2023-12-20T02:39:08;99037.09;;;18.76;43.35
13011;BME280;6786;57.632;11.962;2023-12-20T02:41:36;98933.97;;;18.19;43.22
13011;BME280;6786;57.632;11.962;2023-12-20T02:44:04;99029.06;;;18.76;43.39
13011;BME280;6786;57.632;11.962;2023-12-20T02:46:34;99018.38;;;18.76;43.39
13011;BME280;6786;57.632;11.962;2023-12-20T02:49:02;98938.28;;;18.28;43.36
13011;BME280;6786;57.632;11.962;2023-12-20T02:51:31;99005.97;;;18.75;43.45
13011;BME280;6786;57.632;11.962;2023-12-20T02:53:59;98998.63;;;18.77;43.35
13011;BME280;6786;57.632;11.962;2023-12-20T02:56:29;98977.28;;;18.61;43.41
13011;BME280;6786;57.632;11.962;2023-12-20T02:58:57;99000.63;;;18.75;43.46
13011;BME280;6786;57.632;11.962;2023-12-20T03:01:25;98988.09;;;18.75;43.28
13011;BME280;6786;57.632;11.962;2023-12-20T03:03:54;98904.03;;;18.23;43.42
13011;BME280;6786;57.632;11.962;2023-12-20T03:06:23;98850.22;;;17.88;43.46
13011;BME280;6786;57.632;11.962;2023-12-20T03:08:51;98974.72;;;18.75;43.41
13011;BME280;6786;57.632;11.962;2023-12-20T03:11:20;98981.72;;;18.76;43.25
13011;BME280;6786;57.632;11.962;2023-12-20T03:13:50;98904.53;;;18.27;43.27
13011;BME280;6786;57.632;11.962;2023-12-20T03:16:18;98988.25;;;18.74;43.16
13011;BME280;6786;57.632;11.962;2023-12-20T03:18:46;98897.66;;;18.32;43.41
13011;BME280;6786;57.632;11.962;2023-12-20T03:21:14;98966.50;;;18.77;43.38
13011;BME280;6786;57.632;11.962;2023-12-20T03:23:43;98965.66;;;18.76;43.45
13011;BME280;6786;57.632;11.962;2023-12-20T03:26:11;98806.88;;;17.78;43.38
13011;BME280;6786;57.632;11.962;2023-12-20T03:28:40;98946.94;;;18.76;43.41
13011;BME280;6786;57.632;11.962;2023-12-20T03:31:10;98961.16;;;18.77;43.33
13011;BME280;6786;57.632;11.962;2023-12-20T03:33:39;98861.63;;;18.20;43.41
13011;BME280;6786;57.632;11.962;2023-12-20T03:36:08;98952.47;;;18.75;43.34
13011;BME280;6786;57.632;11.962;2023-12-20T03:38:36;98959.53;;;18.68;43.38
13011;BME280;6786;57.632;11.962;2023-12-20T03:41:04;98956.16;;;18.74;43.55
13011;BME280;6786;57.632;11.962;2023-12-20T03:43:32;98871.50;;;18.20;43.30
13011;BME280;6786;57.632;11.962;2023-12-20T03:46:01;98955.78;;;18.77;43.30
13011;BME280;6786;57.632;11.962;2023-12-20T03:48:32;98928.25;;;18.68;43.40
13011;BME280;6786;57.632;11.962;2023-12-20T03:51:00;98935.41;;;18.76;43.24
13011;BME280;6786;57.632;11.962;2023-12-20T03:53:29;98931.88;;;18.75;43.27
13011;BME280;6786;57.632;11.962;2023-12-20T03:55:57;98916.69;;;18.76;43.32
13011;BME280;6786;57.632;11.962;2023-12-20T03:58:25;98896.31;;;18.67;43.28
13011;BME280;6786;57.632;11.962;2023-12-20T04:00:54;98811.00;;;18.19;43.43
13011;BME280;6786;57.632;11.962;2023-12-20T04:03:22;98898.94;;;18.75;43.34
13011;BME280;6786;57.632;11.962;2023-12-20T04:05:52;98896.63;;;18.72;43.38
13011;BME280;6786;57.632;11.962;2023-12-20T04:08:20;98816.69;;;18.16;43.37
13011;BME280;6786;57.632;11.962;2023-12-20T04:10:48;98877.34;;;18.54;43.32
13011;BME280;6786;57.632;11.962;2023-12-20T04:13:17;98893.94;;;18.72;43.41
13011;BME280;6786;57.632;11.962;2023-12-20T04:15:45;98895.63;;;18.73;43.42
13011;BME280;6786;57.632;11.962;2023-12-20T04:18:13;98884.91;;;18.73;43.39
13011;BME280;6786;57.632;11.962;2023-12-20T04:20:42;98875.88;;;18.74;43.32
13011;BME280;6786;57.632;11.962;2023-12-20T04:23:11;98868.88;;;18.73;43.44
13011;BME280;6786;57.632;11.962;2023-12-20T04:25:40;98875.03;;;18.73;43.32
13011;BME280;6786;57.632;11.962;2023-12-20T04:28:08;98863.50;;;18.73;43.31
13011;BME280;6786;57.632;11.962;2023-12-20T04:30:36;98868.88;;;18.73;43.39
13011;BME280;6786;57.632;11.962;2023-12-20T04:33:05;98854.47;;;18.74;43.37
13011;BME280;6786;57.632;11.962;2023-12-20T04:35:33;98861.81;;;18.72;43.39
13011;BME280;6786;57.632;11.962;2023-12-20T04:38:02;98717.56;;;17.72;43.33
13011;BME280;6786;57.632;11.962;2023-12-20T04:40:31;98861.81;;;18.72;43.33
13011;BME280;6786;57.632;11.962;2023-12-20T04:43:00;98859.81;;;18.74;43.38
13011;BME280;6786;57.632;11.962;2023-12-20T04:45:28;98861.81;;;18.72;43.29
13011;BME280;6786;57.632;11.962;2023-12-20T04:47:56;98840.31;;;18.65;43.26
13011;BME280;6786;57.632;11.962;2023-12-20T04:50:25;98816.53;;;18.48;43.53
13011;BME280;6786;57.632;11.962;2023-12-20T04:52:53;98716.31;;;17.83;43.31
13011;BME280;6786;57.632;11.962;2023-12-20T04:55:22;98844.47;;;18.68;43.33
13011;BME280;6786;57.632;11.962;2023-12-20T04:57:52;98850.78;;;18.75;43.33
13011;BME280;6786;57.632;11.962;2023-12-20T05:00:21;98849.13;;;18.74;43.37
13011;BME280;6786;57.632;11.962;2023-12-20T05:02:50;98831.41;;;18.73;43.29
13011;BME280;6786;57.632;11.962;2023-12-20T05:05:18;98834.88;;;18.73;43.30
13011;BME280;6786;57.632;11.962;2023-12-20T05:07:46;98838.41;;;18.74;43.33
13011;BME280;6786;57.632;11.962;2023-12-20T05:10:15;98842.75;;;18.75;43.26
13011;BME280;6786;57.632;11.962;2023-12-20T05:12:44;98824.38;;;18.72;43.37
13011;BME280;6786;57.632;11.962;2023-12-20T05:15:14;98667.94;;;17.78;43.48
13011;BME280;6786;57.632;11.962;2023-12-20T05:17:42;98745.75;;;18.28;43.64
13011;BME280;6786;57.632;11.962;2023-12-20T05:20:11;98732.88;;;18.31;43.47
13011;BME280;6786;57.632;11.962;2023-12-20T05:22:41;98820.94;;;18.86;43.42
13011;BME280;6786;57.632;11.962;2023-12-20T05:25:09;98738.66;;;18.43;43.54
13011;BME280;6786;57.632;11.962;2023-12-20T05:27:37;98813.56;;;18.88;43.43
13011;BME280;6786;57.632;11.962;2023-12-20T05:30:06;98797.56;;;18.80;43.49
13011;BME280;6786;57.632;11.962;2023-12-20T05:32:36;98809.56;;;18.84;43.45
13011;BME280;6786;57.632;11.962;2023-12-20T05:35:05;98805.22;;;18.83;43.48
13011;BME280;6786;57.632;11.962;2023-12-20T05:37:34;98788.31;;;18.82;43.48
13011;BME280;6786;57.632;11.962;2023-12-20T05:40:03;98773.25;;;18.67;43.45
13011;BME280;6786;57.632;11.962;2023-12-20T05:42:31;98769.56;;;18.68;43.51
13011;BME280;6786;57.632;11.962;2023-12-20T05:45:00;98778.69;;;18.73;43.36
13011;BME280;6786;57.632;11.962;2023-12-20T05:47:28;98784.16;;;18.80;43.52
13011;BME280;6786;57.632;11.962;2023-12-20T05:49:58;98783.34;;;18.79;43.43
13011;BME280;6786;57.632;11.962;2023-12-20T05:52:26;98776.31;;;18.78;43.51
13011;BME280;6786;57.632;11.962;2023-12-20T05:54:55;98773.66;;;18.78;43.43
13011;BME280;6786;57.632;11.962;2023-12-20T05:57:24;98784.53;;;18.77;43.43
13011;BME280;6786;57.632;11.962;2023-12-20T05:59:53;98780.22;;;18.76;43.47
13011;BME280;6786;57.632;11.962;2023-12-20T06:02:21;98780.84;;;18.78;43.46
13011;BME280;6786;57.632;11.962;2023-12-20T06:04:49;98687.03;;;18.20;43.39
13011;BME280;6786;57.632;11.962;2023-12-20T06:07:20;98767.75;;;18.83;43.31
13011;BME280;6786;57.632;11.962;2023-12-20T06:09:49;98766.47;;;18.79;43.45
13011;BME280;6786;57.632;11.962;2023-12-20T06:12:18;98767.44;;;18.78;43.41
13011;BME280;6786;57.632;11.962;2023-12-20T06:14:46;98628.50;;;17.80;43.37
13011;BME280;6786;57.632;11.962;2023-12-20T06:17:16;98784.53;;;18.77;43.40
13011;BME280;6786;57.632;11.962;2023-12-20T06:19:45;98768.47;;;18.77;43.59
13011;BME280;6786;57.632;11.962;2023-12-20T06:22:15;98757.09;;;18.75;43.51
13011;BME280;6786;57.632;11.962;2023-12-20T06:24:45;98769.50;;;18.76;43.42
13011;BME280;6786;57.632;11.962;2023-12-20T06:27:13;98765.13;;;18.75;43.44
13011;BME280;6786;57.632;11.962;2023-12-20T06:29:42;98761.47;;;18.76;43.51
13011;BME280;6786;57.632;11.962;2023-12-20T06:32:11;98751.50;;;18.70;43.34
13011;BME280;6786;57.632;11.962;2023-12-20T06:34:40;98763.13;;;18.77;43.39
13011;BME280;6786;57.632;11.962;2023-12-20T06:37:08;98752.41;;;18.77;43.40
13011;BME280;6786;57.632;11.962;2023-12-20T06:39:37;98760.63;;;18.75;43.35
13011;BME280;6786;57.632;11.962;2023-12-20T06:42:07;98755.28;;;18.75;43.46
13011;BME280;6786;57.632;11.962;2023-12-20T06:44:37;98694.91;;;18.36;43.35
13011;BME280;6786;57.632;11.962;2023-12-20T06:47:06;98758.78;;;18.76;43.25
13011;BME280;6786;57.632;11.962;2023-12-20T06:49:34;98663.31;;;18.17;43.37
13011;BME280;6786;57.632;11.962;2023-12-20T06:52:04;98759.78;;;18.75;43.37
13011;BME280;6786;57.632;11.962;2023-12-20T06:54:33;98750.47;;;18.71;43.46
13011;BME280;6786;57.632;11.962;2023-12-20T06:57:02;98738.38;;;18.75;43.39
13011;BME280;6786;57.632;11.962;2023-12-20T06:59:33;98710.59;;;18.61;43.08
13011;BME280;6786;57.632;11.962;2023-12-20T07:02:01;98726.38;;;18.71;43.40
13011;BME280;6786;57.632;11.962;2023-12-20T07:04:30;98728.34;;;18.77;43.35
13011;BME280;6786;57.632;11.962;2023-12-20T07:06:58;98728.34;;;18.77;43.32
13011;BME280;6786;57.632;11.962;2023-12-20T07:09:27;98731.00;;;18.77;43.35
13011;BME280;6786;57.632;11.962;2023-12-20T07:11:55;98721.34;;;18.76;43.28
13011;BME280;6786;57.632;11.962;2023-12-20T07:14:24;98726.69;;;18.76;43.23
13011;BME280;6786;57.632;11.962;2023-12-20T07:16:54;98725.00;;;18.75;43.24
13011;BME280;6786;57.632;11.962;2023-12-20T07:19:22;98729.34;;;18.76;43.33
13011;BME280;6786;57.632;11.962;2023-12-20T07:21:51;98738.19;;;18.76;43.18
13011;BME280;6786;57.632;11.962;2023-12-20T07:24:20;98720.31;;;18.77;43.31
13011;BME280;6786;57.632;11.962;2023-12-20T07:26:48;98646.84;;;18.28;43.28
13011;BME280;6786;57.632;11.962;2023-12-20T07:29:17;98724.00;;;18.76;43.22
13011;BME280;6786;57.632;11.962;2023-12-20T07:31:46;98728.53;;;18.75;43.31
13011;BME280;6786;57.632;11.962;2023-12-20T07:34:15;98728.03;;;18.72;43.23
13011;BME280;6786;57.632;11.962;2023-12-20T07:36:44;98711.06;;;18.65;43.40
13011;BME280;6786;57.632;11.962;2023-12-20T07:39:12;98715.31;;;18.74;43.44
13011;BME280;6786;57.632;11.962;2023-12-20T07:41:41;98716.97;;;18.75;43.35
13011;BME280;6786;57.632;11.962;2023-12-20T07:44:12;98703.69;;;18.67;43.29
13011;BME280;6786;57.632;11.962;2023-12-20T07:46:40;98674.88;;;18.32;43.18
13011;BME280;6786;57.632;11.962;2023-12-20T07:49:09;98724.38;;;18.73;43.30
13011;BME280;6786;57.632;11.962;2023-12-20T07:51:39;98720.66;;;18.74;43.28
13011;BME280;6786;57.632;11.962;2023-12-20T07:54:08;98707.75;;;18.63;43.31
13011;BME280;6786;57.632;11.962;2023-12-20T07:56:36;98713.50;;;18.74;43.24
13011;BME280;6786;57.632;11.962;2023-12-20T07:59:06;98715.31;;;18.74;43.25
13011;BME280;6786;57.632;11.962;2023-12-20T08:01:48;98571.28;;;17.74;43.30
13011;BME280;6786;57.632;11.962;2023-12-20T08:04:16;98642.50;;;18.27;43.11
13011;BME280;6786;57.632;11.962;2023-12-20T08:06:46;98726.88;;;18.74;43.23
13011;BME280;6786;57.632;11.962;2023-12-20T08:09:15;98630.88;;;18.20;43.31
13011;BME280;6786;57.632;11.962;2023-12-20T08:11:45;98717.34;;;18.72;43.35
13011;BME280;6786;57.632;11.962;2023-12-20T08:14:13;98714.47;;;18.73;43.20
13011;BME280;6786;57.632;11.962;2023-12-20T08:16:44;98711.97;;;18.72;43.23
13011;BME280;6786;57.632;11.962;2023-12-20T08:19:12;98704.97;;;18.71;43.25
13011;BME280;6786;57.632;11.962;2023-12-20T08:21:40;98706.63;;;18.72;43.28
13011;BME280;6786;57.632;11.962;2023-12-20T08:24:10;98711.97;;;18.72;43.26
13011;BME280;6786;57.632;11.962;2023-12-20T08:26:39;98715.69;;;18.71;43.22
13011;BME280;6786;57.632;11.962;2023-12-20T08:29:07;98714.03;;;18.70;43.33
13011;BME280;6786;57.632;11.962;2023-12-20T08:31:35;98721.03;;;18.71;43.38
13011;BME280;6786;57.632;11.962;2023-12-20T08:34:04;98719.38;;;18.70;43.27
13011;BME280;6786;57.632;11.962;2023-12-20T08:36:35;98639.81;;;18.12;43.26
13011;BME280;6786;57.632;11.962;2023-12-20T08:39:03;98704.91;;;18.64;43.34
13011;BME280;6786;57.632;11.962;2023-12-20T08:41:36;98714.03;;;18.70;43.23
13011;BME280;6786;57.632;11.962;2023-12-20T08:44:04;98719.38;;;18.70;43.20
13011;BME280;6786;57.632;11.962;2023-12-20T08:46:33;98710.34;;;18.71;43.26
13011;BME280;6786;57.632;11.962;2023-12-20T08:49:01;98714.03;;;18.70;43.29
13011;BME280;6786;57.632;11.962;2023-12-20T08:51:30;98709.50;;;18.70;43.23
13011;BME280;6786;57.632;11.962;2023-12-20T08:53:58;98699.63;;;18.71;43.31
13011;BME280;6786;57.632;11.962;2023-12-20T08:56:27;98690.94;;;18.69;43.19
13011;BME280;6786;57.632;11.962;2023-12-20T08:58:57;98685.16;;;18.65;43.20
13011;BME280;6786;57.632;11.962;2023-12-20T09:01:25;98695.94;;;18.72;43.24
13011;BME280;6786;57.632;11.962;2023-12-20T09:03:54;98702.97;;;18.73;43.24
13011;BME280;6786;57.632;11.962;2023-12-20T09:06:22;98628.00;;;18.21;43.11
13011;BME280;6786;57.632;11.962;2023-12-20T09:08:51;98704.63;;;18.74;43.23
13011;BME280;6786;57.632;11.962;2023-12-20T09:11:20;98703.97;;;18.72;43.25
13011;BME280;6786;57.632;11.962;2023-12-20T09:13:48;98636.44;;;18.33;43.24
13011;BME280;6786;57.632;11.962;2023-12-20T09:16:18;98701.28;;;18.72;43.13
13011;BME280;6786;57.632;11.962;2023-12-20T09:18:47;98701.28;;;18.72;43.28
13011;BME280;6786;57.632;11.962;2023-12-20T09:21:15;98693.25;;;18.72;43.16
13011;BME280;6786;57.632;11.962;2023-12-20T09:23:43;98639.16;;;18.47;43.29
13011;BME280;6786;57.632;11.962;2023-12-20T09:26:12;98679.88;;;18.72;43.18
13011;BME280;6786;57.632;11.962;2023-12-20T09:28:40;98684.59;;;18.70;43.22
13011;BME280;6786;57.632;11.962;2023-12-20T09:31:08;98676.38;;;18.57;43.26
13011;BME280;6786;57.632;11.962;2023-12-20T09:33:38;98601.09;;;18.23;43.24
13011;BME280;6786;57.632;11.962;2023-12-20T09:36:07;98619.53;;;18.18;43.30
13011;BME280;6786;57.632;11.962;2023-12-20T09:38:35;98607.44;;;18.22;43.17
13011;BME280;6786;57.632;11.962;2023-12-20T09:41:04;98679.25;;;18.70;43.16
13011;BME280;6786;57.632;11.962;2023-12-20T09:43:35;98672.03;;;18.70;43.26
13011;BME280;6786;57.632;11.962;2023-12-20T09:46:06;98670.00;;;18.72;43.14
13011;BME280;6786;57.632;11.962;2023-12-20T09:48:38;98670.84;;;18.73;43.14
13011;BME280;6786;57.632;11.962;2023-12-20T09:51:07;98670.84;;;18.73;43.06
13011;BME280;6786;57.632;11.962;2023-12-20T09:53:36;98671.22;;;18.70;43.06
13011;BME280;6786;57.632;11.962;2023-12-20T09:56:07;98588.56;;;18.23;43.13
13011;BME280;6786;57.632;11.962;2023-12-20T09:58:37;98589.75;;;18.21;43.18
13011;BME280;6786;57.632;11.962;2023-12-20T10:01:07;98627.38;;;18.42;42.91
13011;BME280;6786;57.632;11.962;2023-12-20T10:03:39;98684.06;;;18.74;43.08
13011;BME280;6786;57.632;11.962;2023-12-20T10:06:08;98671.66;;;18.73;43.00
13011;BME280;6786;57.632;11.962;2023-12-20T10:08:38;98643.06;;;18.59;43.16
13011;BME280;6786;57.632;11.962;2023-12-20T10:11:06;98660.16;;;18.73;43.15
13011;BME280;6786;57.632;11.962;2023-12-20T10:13:39;98663.63;;;18.59;43.17
13011;BME280;6786;57.632;11.962;2023-12-20T10:16:07;98651.09;;;18.74;43.05
13011;BME280;6786;57.632;11.962;2023-12-20T10:18:36;98649.44;;;18.73;43.04
13011;BME280;6786;57.632;11.962;2023-12-20T10:21:07;98653.78;;;18.74;43.12
13011;BME280;6786;57.632;11.962;2023-12-20T10:23:37;98644.91;;;18.73;43.04
13011;BME280;6786;57.632;11.962;2023-12-20T10:26:07;98651.09;;;18.74;42.96
13011;BME280;6786;57.632;11.962;2023-12-20T10:28:36;98651.09;;;18.74;43.01
13011;BME280;6786;57.632;11.962;2023-12-20T10:31:05;98650.06;;;18.75;43.10
13011;BME280;6786;57.632;11.962;2023-12-20T10:33:33;98642.06;;;18.75;43.28
13011;BME280;6786;57.632;11.962;2023-12-20T10:36:02;98496.50;;;17.89;42.99
13011;BME280;6786;57.632;11.962;2023-12-20T10:38:33;98635.88;;;18.74;43.08
13011;BME280;6786;57.632;11.962;2023-12-20T10:41:04;98624.34;;;18.74;43.23
13011;BME280;6786;57.632;11.962;2023-12-20T10:43:34;98624.34;;;18.74;43.02
13011;BME280;6786;57.632;11.962;2023-12-20T10:46:03;98564.44;;;18.31;43.01
13011;BME280;6786;57.632;11.962;2023-12-20T10:48:34;98623.50;;;18.73;43.15
13011;BME280;6786;57.632;11.962;2023-12-20T10:51:04;98621.66;;;18.74;42.98
13011;BME280;6786;57.632;11.962;2023-12-20T10:53:35;98618.16;;;18.73;42.97
13011;BME280;6786;57.632;11.962;2023-12-20T10:56:06;98551.97;;;18.24;42.97
13011;BME280;6786;57.632;11.962;2023-12-20T10:58:38;98613.66;;;18.74;42.99
13011;BME280;6786;57.632;11.962;2023-12-20T11:01:12;98624.34;;;18.74;42.99
13011;BME280;6786;57.632;11.962;2023-12-20T11:03:44;98609.31;;;18.73;42.98
13011;BME280;6786;57.632;11.962;2023-12-20T11:06:25;98608.28;;;18.74;42.99
13011;BME280;6786;57.632;11.962;2023-12-20T11:09:02;98607.44;;;18.73;43.08
13011;BME280;6786;57.632;11.962;2023-12-20T11:11:48;98606.63;;;18.73;42.96
13011;BME280;6786;57.632;11.962;2023-12-20T11:14:24;98621.00;;;18.72;43.00
13011;BME280;6786;57.632;11.962;2023-12-20T11:17:05;98609.31;;;18.73;42.96
13011;BME280;6786;57.632;11.962;2023-12-20T11:19:36;98612.00;;;18.73;43.02
13011;BME280;6786;57.632;11.962;2023-12-20T11:22:05;98596.31;;;18.70;43.02
13011;BME280;6786;57.632;11.962;2023-12-20T11:24:35;98606.63;;;18.73;42.93
13011;BME280;6786;57.632;11.962;2023-12-20T11:27:13;98598.78;;;18.71;42.90
13011;BME280;6786;57.632;11.962;2023-12-20T11:29:41;98590.59;;;18.73;43.00
13011;BME280;6786;57.632;11.962;2023-12-20T11:32:28;98524.50;;;18.30;43.11
13011;BME280;6786;57.632;11.962;2023-12-20T11:34:58;98595.09;;;18.72;42.98
13011;BME280;6786;57.632;11.962;2023-12-20T11:37:31;98587.25;;;18.71;43.04
13011;BME280;6786;57.632;11.962;2023-12-20T11:40:03;98580.34;;;18.62;42.90
13011;BME280;6786;57.632;11.962;2023-12-20T11:42:33;98568.16;;;18.59;43.00
13011;BME280;6786;57.632;11.962;2023-12-20T11:45:02;98577.41;;;18.71;43.00
13011;BME280;6786;57.632;11.962;2023-12-20T11:47:31;98550.34;;;18.52;43.04
13011;BME280;6786;57.632;11.962;2023-12-20T11:50:00;98595.94;;;18.73;43.28
13011;BME280;6786;57.632;11.962;2023-12-20T11:52:31;98588.09;;;18.71;42.96
13011;BME280;6786;57.632;11.962;2023-12-20T11:55:01;98509.19;;;18.24;42.93
13011;BME280;6786;57.632;11.962;2023-12-20T11:57:30;98549.44;;;18.45;43.08
13011;BME280;6786;57.632;11.962;2023-12-20T11:59:59;98594.25;;;18.72;42.96
13011;BME280;6786;57.632;11.962;2023-12-20T12:02:27;98590.59;;;18.73;42.98
13011;BME280;6786;57.632;11.962;2023-12-20T12:04:56;98593.25;;;18.73;42.92
13011;BME280;6786;57.632;11.962;2023-12-20T12:07:25;98580.06;;;18.71;43.04
13011;BME280;6786;57.632;11.962;2023-12-20T12:09:54;98581.53;;;18.74;43.16
13011;BME280;6786;57.632;11.962;2023-12-20T12:12:24;98586.22;;;18.72;43.04
13011;BME280;6786;57.632;11.962;2023-12-20T12:14:54;98580.88;;;18.72;42.95
13011;BME280;6786;57.632;11.962;2023-12-20T12:17:23;98578.19;;;18.72;43.02
13011;BME280;6786;57.632;11.962;2023-12-20T12:20:02;98593.25;;;18.73;42.94
13011;BME280;6786;57.632;11.962;2023-12-20T12:22:31;98584.22;;;18.74;42.93
13011;BME280;6786;57.632;11.962;2023-12-20T12:25:09;98513.81;;;18.30;42.82
13011;BME280;6786;57.632;11.962;2023-12-20T12:27:41;98587.25;;;18.71;43.08
13011;BME280;6786;57.632;11.962;2023-12-20T12:30:10;98587.25;;;18.71;43.04
13011;BME280;6786;57.632;11.962;2023-12-20T12:32:40;98597.97;;;18.71;42.98
13011;BME280;6786;57.632;11.962;2023-12-20T12:35:09;98591.59;;;18.72;42.98
13011;BME280;6786;57.632;11.962;2023-12-20T12:37:39;98564.03;;;18.57;42.95
13011;BME280;6786;57.632;11.962;2023-12-20T12:40:09;98483.38;;;18.02;43.02
13011;BME280;6786;57.632;11.962;2023-12-20T12:42:41;98589.94;;;18.71;43.01
13011;BME280;6786;57.632;11.962;2023-12-20T12:45:10;98592.25;;;18.74;42.99
13011;BME280;6786;57.632;11.962;2023-12-20T12:47:39;98587.25;;;18.71;43.02
13011;BME280;6786;57.632;11.962;2023-12-20T12:50:08;98594.63;;;18.69;42.89
13011;BME280;6786;57.632;11.962;2023-12-20T12:52:37;98581.44;;;18.67;42.94
13011;BME280;6786;57.632;11.962;2023-12-20T12:55:06;98583.56;;;18.72;42.93
13011;BME280;6786;57.632;11.962;2023-12-20T12:57:34;98530.81;;;18.37;42.98
13011;BME280;6786;57.632;11.962;2023-12-20T13:00:05;98591.59;;;18.72;42.92
13011;BME280;6786;57.632;11.962;2023-12-20T13:02:35;98594.25;;;18.72;42.87
13011;BME280;6786;57.632;11.962;2023-12-20T13:05:06;98592.59;;;18.71;43.04
13011;BME280;6786;57.632;11.962;2023-12-20T13:07:35;98595.28;;;18.71;42.98
13011;BME280;6786;57.632;11.962;2023-12-20T13:10:05;98591.75;;;18.70;42.90